Lake Worth, FL

3:43 AM EST on December 06, 2016 (GMT -0500)
| | Change Station

Elev -9999 ft 0.00 °N, 0.00 °E | Updated

Partly Cloudy
Partly Cloudy
76 °F
Feels Like 76 °F
N
11
Wind Variable Wind from South
Gusts 16 mph

Today
High -- | Low -- °F
--% Chance of Precip.
Yesterday
High -- | Low -- °F
Precip. -- in
Pressure 29.94 in
Visibility 10.0 miles
Clouds Few 1800 ft
Scattered Clouds 12000 ft
Dew Point 71 °F
Humidity 84%
Rainfall --
Snow Depth Not available.
6:55 AM 5:27 PM
Waxing Crescent, 39% visible
METAR KPBI 060753Z 18009KT 10SM FEW018 SCT120 24/22 A2994 RMK AO2 SLP139 T02440217
Pressure 29.94 in
Visibility 10.0 miles
Clouds Few 1800 ft
Scattered Clouds 12000 ft
Dew Point 71 °F
Humidity 84%
Rainfall --
Snow Depth Not available.
6:55 AM 5:27 PM
Waxing Crescent, 39% visible
METAR KPBI 060753Z 18009KT 10SM FEW018 SCT120 24/22 A2994 RMK AO2 SLP139 T02440217

10-Day Weather Forecast

Almanac

Astronomy

Dec. 06, 2016 Rise Set
Actual Time
Civil Twilight
Nautical Twilight
Astronomical Twilight
Moon
Length of Visible Light
Length of Day
Tomorrow will be .
, % of the Moon is Illuminated

Today's Extremes

State Highs State Lows

Community

WunderPhotos

Upload Photos

1,955,935 photos uploaded!

WunderBlog® & News

Nearby

Air Quality

  Air Quality AQ Index Pollutant
Not available.

Snow Depth

Station Depth Elevation

Earthquake Activity

City Distance Mag. Time & Date
Minimum magnitude displayed is 2.5.

Coastal Water Temperatures

Place Temperature

Stations

Nearby Weather Stations

Station Location Temp. Windchill Dew Point Humidity Wind Precip. Elev Updated Type
                   

Watches & Warnings

There are currently no watches in effect.